Time;durP1;ratioP1;P1;durP2;ratioP2;P2;SDS_P1;SDS_P2;PMS_P1;PMS_P2;Temp;Humidity;BMP_temperature;BMP_pressure;BME280_temperature;BME280_humidity;BME280_pressure;Samples;Min_cycle;Max_cycle;Signal;HPM_P1;HPM_P2
2023/02/19 00:01:05;;;;;;;;;;;10.00;99.90;;;;;;8390810;28;19929;-70
2023/02/19 00:05:07;;;;;;;;;;;10.00;99.90;;;;;;8389405;28;19928;-70
2023/02/19 00:09:13;;;;;;;;;;;10.00;99.90;;;;;;8396310;28;19924;-70
2023/02/19 00:13:14;;;;;;;;;;;10.00;99.90;;;;;;8387679;28;19924;-70
2023/02/19 00:17:16;;;;;;;;;;;9.90;99.90;;;;;;8390166;28;19932;-70
2023/02/19 00:21:18;;;;;;;;;;;9.90;99.90;;;;;;8386804;28;20287;-70
2023/02/19 00:25:19;;;;;;;;;;;9.90;99.90;;;;;;8386038;28;19933;-69
2023/02/19 00:29:21;;;;;;;;;;;9.90;99.90;;;;;;8385509;28;20023;-70
2023/02/19 00:33:23;;;;;;;;;;;9.90;99.90;;;;;;8382284;28;20241;-69
2023/02/19 00:37:24;;;;;;;;;;;9.90;99.90;;;;;;8385727;28;19968;-70
2023/02/19 00:41:27;;;;;;;;;;;9.90;99.90;;;;;;8369896;28;20015;-70
2023/02/19 00:45:29;;;;;;;;;;;9.90;99.90;;;;;;8378171;28;19928;-70
2023/02/19 00:49:31;;;;;;;;;;;9.90;99.90;;;;;;8375326;28;19930;-70
2023/02/19 00:53:32;;;;;;;;;;;9.90;99.90;;;;;;8379307;28;19924;-70
2023/02/19 00:57:34;;;;;;;;;;;9.90;99.90;;;;;;8382264;28;19964;-70
2023/02/19 01:01:36;;;;;;;;;;;9.80;99.90;;;;;;8377231;28;20325;-70
2023/02/19 01:05:37;;;;;;;;;;;9.80;99.90;;;;;;8369924;28;20110;-69
2023/02/19 01:09:39;;;;;;;;;;;9.80;99.90;;;;;;8378965;28;20390;-69
2023/02/19 01:13:41;;;;;;;;;;;9.80;99.90;;;;;;8371775;28;19924;-70
2023/02/19 01:17:43;;;;;;;;;;;9.80;99.90;;;;;;8375514;28;20356;-70
2023/02/19 01:21:45;;;;;;;;;;;9.90;99.90;;;;;;8374541;28;20417;-70
2023/02/19 01:25:46;;;;;;;;;;;9.90;99.90;;;;;;8377225;28;20059;-70
2023/02/19 01:39:55;;;;;;;;;;;9.90;99.90;;;;;;8376450;28;19973;-70
2023/02/19 01:44:06;;;;;;;;;;;9.90;99.90;;;;;;8377049;28;19924;-70
2023/02/19 01:48:12;;;;;;;;;;;9.90;99.90;;;;;;8378148;28;19947;-70
2023/02/19 01:52:19;;;;;;;;;;;9.90;99.90;;;;;;8375026;28;19928;-70
2023/02/19 01:56:21;;;;;;;;;;;9.80;99.90;;;;;;8369020;28;19924;-70
2023/02/19 02:00:23;;;;;;;;;;;9.80;99.90;;;;;;8393220;28;19928;-70
2023/02/19 02:04:26;;;;;;;;;;;9.80;99.90;;;;;;8392814;28;19935;-70
2023/02/19 02:12:50;;;;;;;;;;;9.80;99.90;;;;;;8391569;28;20287;-70
2023/02/19 02:16:54;;;;;;;;;;;9.80;99.90;;;;;;8388035;28;19947;-69
2023/02/19 02:20:59;;;;;;;;;;;9.80;99.90;;;;;;8386392;28;19951;-70
2023/02/19 02:25:07;;;;;;;;;;;9.80;99.90;;;;;;8390853;28;19964;-70
2023/02/19 02:29:09;;;;;;;;;;;9.80;99.90;;;;;;8364707;28;19929;-70
2023/02/19 02:33:14;;;;;;;;;;;9.80;99.90;;;;;;8364190;28;19924;-70
2023/02/19 02:37:16;;;;;;;;;;;9.80;99.90;;;;;;8389576;28;19977;-69
2023/02/19 02:41:17;;;;;;;;;;;9.80;99.90;;;;;;8372374;28;19955;-70
2023/02/19 02:45:35;;;;;;;;;;;9.80;99.90;;;;;;8388269;28;19935;-69
2023/02/19 02:50:03;;;;;;;;;;;9.70;99.90;;;;;;8389636;28;20291;-70
2023/02/19 02:58:23;;;;;;;;;;;9.70;99.90;;;;;;8391841;28;19931;-70
2023/02/19 03:02:26;;;;;;;;;;;9.70;99.90;;;;;;8386230;28;19963;-70
2023/02/19 03:06:30;;;;;;;;;;;9.70;99.90;;;;;;8391496;28;19929;-69
2023/02/19 03:10:39;;;;;;;;;;;9.70;99.90;;;;;;8389559;28;19928;-70
2023/02/19 03:19:19;;;;;;;;;;;9.60;99.90;;;;;;8387132;28;19978;-70
2023/02/19 03:26:02;;;;;;;;;;;9.60;99.90;;;;;;8388132;28;20584;-70
2023/02/19 03:27:45;;;;;;;;;;;9.50;99.90;;;;;;8384533;28;19931;-70
2023/02/19 03:31:48;;;;;;;;;;;9.50;99.90;;;;;;8389692;28;19931;-71
2023/02/19 03:35:52;;;;;;;;;;;9.50;99.90;;;;;;8391216;28;19931;-70
2023/02/19 03:39:54;;;;;;;;;;;9.50;99.90;;;;;;8372673;28;20074;-70
2023/02/19 03:44:07;;;;;;;;;;;9.50;99.90;;;;;;8384489;28;19959;-70
2023/02/19 03:48:17;;;;;;;;;;;9.50;99.90;;;;;;8392850;28;20342;-70
2023/02/19 03:52:22;;;;;;;;;;;9.50;99.90;;;;;;8384142;28;19932;-70
2023/02/19 03:56:27;;;;;;;;;;;9.50;99.90;;;;;;8379548;28;19928;-70
2023/02/19 04:00:31;;;;;;;;;;;9.50;99.90;;;;;;8396973;28;19939;-70
2023/02/19 04:04:35;;;;;;;;;;;9.50;99.90;;;;;;8383906;28;19931;-70
2023/02/19 04:08:37;;;;;;;;;;;9.50;99.90;;;;;;8391111;28;19998;-70
2023/02/19 04:12:41;;;;;;;;;;;9.50;99.90;;;;;;8386800;28;19924;-70
2023/02/19 04:16:44;;;;;;;;;;;9.50;99.90;;;;;;8371834;28;19924;-70
2023/02/19 04:20:46;;;;;;;;;;;9.50;99.90;;;;;;8384760;28;19959;-70
2023/02/19 04:24:50;;;;;;;;;;;9.50;99.90;;;;;;8389832;28;19972;-70
2023/02/19 04:28:52;;;;;;;;;;;9.50;99.90;;;;;;8395228;28;19958;-70
2023/02/19 04:32:54;;;;;;;;;;;9.60;99.90;;;;;;8376716;28;19924;-70
2023/02/19 04:36:56;;;;;;;;;;;9.60;99.90;;;;;;8378398;28;20394;-70
2023/02/19 04:40:57;;;;;;;;;;;9.60;99.90;;;;;;8372116;28;20390;-70
2023/02/19 04:44:59;;;;;;;;;;;9.60;99.90;;;;;;8387203;28;19924;-70
2023/02/19 04:49:01;;;;;;;;;;;9.60;99.90;;;;;;8373080;28;20015;-70
2023/02/19 04:53:02;;;;;;;;;;;9.60;99.90;;;;;;8378241;28;19925;-70
2023/02/19 04:57:04;;;;;;;;;;;9.60;99.90;;;;;;8389843;28;19960;-70
2023/02/19 05:01:06;;;;;;;;;;;9.60;99.90;;;;;;8384498;28;19951;-70
2023/02/19 05:05:07;;;;;;;;;;;9.60;99.90;;;;;;8387722;28;20320;-70
2023/02/19 05:09:09;;;;;;;;;;;9.50;99.90;;;;;;8387003;28;20384;-70
2023/02/19 05:13:10;;;;;;;;;;;9.50;99.90;;;;;;8387867;28;19924;-70
2023/02/19 05:17:12;;;;;;;;;;;9.50;99.90;;;;;;8359754;28;20644;-70
2023/02/19 05:21:14;;;;;;;;;;;9.50;99.90;;;;;;8379271;28;19972;-70
2023/02/19 05:25:16;;;;;;;;;;;9.50;99.90;;;;;;8382814;28;20233;-71
2023/02/19 05:29:17;;;;;;;;;;;9.50;99.90;;;;;;8388696;28;20340;-70
2023/02/19 05:33:20;;;;;;;;;;;9.50;99.90;;;;;;8380907;28;19929;-71
2023/02/19 05:37:22;;;;;;;;;;;9.50;99.90;;;;;;8379834;28;19924;-71
2023/02/19 05:41:24;;;;;;;;;;;9.50;99.90;;;;;;8375293;28;19963;-70
2023/02/19 05:45:26;;;;;;;;;;;9.50;99.90;;;;;;8376656;28;20299;-70
2023/02/19 05:49:28;;;;;;;;;;;9.50;99.90;;;;;;8386496;28;19952;-70
2023/02/19 05:53:29;;;;;;;;;;;9.50;99.90;;;;;;8381675;28;19970;-70
2023/02/19 05:57:31;;;;;;;;;;;9.60;99.90;;;;;;8378923;28;20366;-71
2023/02/19 06:01:33;;;;;;;;;;;9.60;99.90;;;;;;8350896;28;20035;-70
2023/02/19 06:05:36;;;;;;;;;;;9.60;99.90;;;;;;8358208;28;19987;-71
2023/02/19 06:09:37;;;;;;;;;;;9.60;99.90;;;;;;8378871;28;20015;-70
2023/02/19 06:13:39;;;;;;;;;;;9.60;99.90;;;;;;8383491;28;20419;-70
2023/02/19 06:17:40;;;;;;;;;;;9.60;99.90;;;;;;8351885;28;20051;-70
2023/02/19 06:21:42;;;;;;;;;;;9.60;99.90;;;;;;8377821;28;20086;-70
2023/02/19 06:25:44;;;;;;;;;;;9.60;99.90;;;;;;8382036;28;19935;-70
2023/02/19 06:29:45;;;;;;;;;;;9.60;99.90;;;;;;8387957;28;19932;-70
2023/02/19 06:33:49;;;;;;;;;;;9.60;99.90;;;;;;8379325;28;20029;-71
2023/02/19 06:37:51;;;;;;;;;;;9.60;99.90;;;;;;8362506;28;20326;-70
2023/02/19 06:41:56;;;;;;;;;;;9.60;99.90;;;;;;8390519;28;19965;-70
2023/02/19 06:45:58;;;;;;;;;;;9.60;99.90;;;;;;8383386;28;20019;-70
2023/02/19 06:50:00;;;;;;;;;;;9.50;99.90;;;;;;8390403;28;19924;-70
2023/02/19 06:54:02;;;;;;;;;;;9.50;99.90;;;;;;8385241;28;20024;-70
2023/02/19 06:58:03;;;;;;;;;;;9.50;99.90;;;;;;8365177;28;20016;-70
2023/02/19 07:02:05;;;;;;;;;;;9.40;99.90;;;;;;8354099;28;20011;-70
2023/02/19 07:06:07;;;;;;;;;;;9.40;99.90;;;;;;8380268;28;20015;-70
2023/02/19 07:10:09;;;;;;;;;;;9.30;99.90;;;;;;8382783;28;19976;-70
2023/02/19 07:14:13;;;;;;;;;;;9.30;99.90;;;;;;8376311;28;20019;-70
2023/02/19 07:18:14;;;;;;;;;;;9.30;99.90;;;;;;8366778;28;19931;-70
2023/02/19 07:22:16;;;;;;;;;;;9.30;99.90;;;;;;8380986;28;20671;-71
2023/02/19 07:26:18;;;;;;;;;;;9.40;99.90;;;;;;8392644;28;19924;-70
2023/02/19 07:30:20;;;;;;;;;;;9.40;99.90;;;;;;8396087;28;19924;-70
2023/02/19 07:34:21;;;;;;;;;;;9.40;99.90;;;;;;8394616;28;19924;-71
2023/02/19 07:38:24;;;;;;;;;;;9.40;99.90;;;;;;8369215;28;19934;-70
2023/02/19 07:42:25;;;;;;;;;;;9.40;99.90;;;;;;8385121;28;20044;-70
2023/02/19 07:46:28;;;;;;;;;;;9.40;99.90;;;;;;8389451;28;19983;-70
2023/02/19 07:50:30;;;;;;;;;;;9.40;99.90;;;;;;8382942;28;19925;-70
2023/02/19 07:54:32;;;;;;;;;;;9.30;99.90;;;;;;8388682;28;19925;-71
2023/02/19 07:58:34;;;;;;;;;;;9.30;99.90;;;;;;8368891;28;19928;-70
2023/02/19 08:06:56;;;;;;;;;;;9.30;99.90;;;;;;8391915;28;19924;-70
2023/02/19 08:15:18;;;;;;;;;;;9.30;99.90;;;;;;8390759;28;19943;-70
2023/02/19 08:19:23;;;;;;;;;;;9.40;99.90;;;;;;8394091;28;19924;-70
2023/02/19 08:23:25;;;;;;;;;;;9.40;99.90;;;;;;8395685;28;19963;-70
2023/02/19 08:27:26;;;;;;;;;;;9.40;99.90;;;;;;8374690;28;19930;-70
2023/02/19 08:31:28;;;;;;;;;;;9.40;99.90;;;;;;8383432;28;20327;-70
2023/02/19 08:35:30;;;;;;;;;;;9.40;99.90;;;;;;8395284;28;19979;-70
2023/02/19 08:39:31;;;;;;;;;;;9.50;99.90;;;;;;8369613;28;19946;-70
2023/02/19 08:43:33;;;;;;;;;;;9.50;99.90;;;;;;8386053;28;19968;-70
2023/02/19 08:47:35;;;;;;;;;;;9.50;99.90;;;;;;8370209;28;19936;-70
2023/02/19 08:51:36;;;;;;;;;;;9.50;99.90;;;;;;8389925;28;20295;-70
2023/02/19 08:55:38;;;;;;;;;;;9.60;99.90;;;;;;8390924;28;19954;-70
2023/02/19 08:59:40;;;;;;;;;;;9.60;99.90;;;;;;8388931;28;19947;-70
2023/02/19 09:03:41;;;;;;;;;;;9.60;99.90;;;;;;8392891;28;19932;-70
2023/02/19 09:07:43;;;;;;;;;;;9.70;99.90;;;;;;8371490;28;19928;-70
2023/02/19 09:11:45;;;;;;;;;;;9.70;99.90;;;;;;8389227;28;19928;-70
2023/02/19 09:15:49;;;;;;;;;;;9.70;99.90;;;;;;8388297;28;19928;-70
2023/02/19 09:19:51;;;;;;;;;;;9.70;99.90;;;;;;8365726;28;19932;-70
2023/02/19 09:23:52;;;;;;;;;;;9.70;99.90;;;;;;8388887;28;20022;-70
2023/02/19 09:27:55;;;;;;;;;;;9.80;99.90;;;;;;8388775;28;19975;-70
2023/02/19 09:31:57;;;;;;;;;;;9.80;99.90;;;;;;8389218;28;19924;-70
2023/02/19 09:35:59;;;;;;;;;;;9.80;99.90;;;;;;8391275;28;19932;-70
2023/02/19 09:40:01;;;;;;;;;;;9.90;99.90;;;;;;8382643;28;19936;-70
2023/02/19 09:44:04;;;;;;;;;;;9.90;99.90;;;;;;8391510;28;19924;-70
2023/02/19 09:48:09;;;;;;;;;;;10.00;99.90;;;;;;8370120;28;20368;-70
2023/02/19 09:52:10;;;;;;;;;;;10.00;99.90;;;;;;8391386;28;19929;-70
2023/02/19 09:56:12;;;;;;;;;;;10.10;99.90;;;;;;8390237;28;19947;-71
2023/02/19 10:00:22;;;;;;;;;;;10.10;99.90;;;;;;8388036;28;19924;-70
2023/02/19 10:04:24;;;;;;;;;;;10.20;99.90;;;;;;8391761;28;19928;-70
2023/02/19 10:08:26;;;;;;;;;;;10.20;99.90;;;;;;8385989;28;19933;-70
2023/02/19 10:12:28;;;;;;;;;;;10.20;99.90;;;;;;8388154;28;19975;-71
2023/02/19 10:16:30;;;;;;;;;;;10.10;99.90;;;;;;8386440;28;19925;-70
2023/02/19 10:20:32;;;;;;;;;;;10.10;99.90;;;;;;8390832;28;19935;-70
2023/02/19 10:24:34;;;;;;;;;;;10.10;99.90;;;;;;8393412;28;20455;-71
2023/02/19 10:28:38;;;;;;;;;;;10.00;99.90;;;;;;8395412;28;19924;-71
2023/02/19 10:32:56;;;;;;;;;;;10.00;99.90;;;;;;8397919;28;19925;-71
2023/02/19 10:36:57;;;;;;;;;;;10.00;99.90;;;;;;8374597;28;19924;-71
2023/02/19 10:41:04;;;;;;;;;;;10.00;99.90;;;;;;8385258;28;20464;-70
2023/02/19 10:45:15;;;;;;;;;;;9.90;99.90;;;;;;8384344;28;19935;-70
2023/02/19 10:49:17;;;;;;;;;;;9.80;99.90;;;;;;8375298;28;19925;-71
2023/02/19 10:53:21;;;;;;;;;;;9.80;99.90;;;;;;8382287;28;20359;-71
2023/02/19 10:57:28;;;;;;;;;;;9.80;99.90;;;;;;8380024;28;19932;-70
2023/02/19 11:01:30;;;;;;;;;;;9.80;99.90;;;;;;8384970;28;19924;-70
2023/02/19 11:05:32;;;;;;;;;;;9.70;99.90;;;;;;8379993;28;19947;-70
2023/02/19 11:09:37;;;;;;;;;;;9.60;99.90;;;;;;8376915;28;20437;-70
2023/02/19 11:13:40;;;;;;;;;;;9.60;99.90;;;;;;8380652;28;19924;-70
2023/02/19 11:17:42;;;;;;;;;;;9.50;99.90;;;;;;8376540;28;19964;-70
2023/02/19 11:21:44;;;;;;;;;;;9.50;99.90;;;;;;8386598;28;20011;-70
2023/02/19 11:25:46;;;;;;;;;;;9.50;99.90;;;;;;8370552;28;19933;-70
2023/02/19 11:29:48;;;;;;;;;;;9.50;99.90;;;;;;8368392;28;19924;-70
2023/02/19 11:33:52;;;;;;;;;;;9.60;99.90;;;;;;8381597;28;19931;-70
2023/02/19 11:37:56;;;;;;;;;;;9.60;99.90;;;;;;8372476;28;20411;-70
2023/02/19 11:42:11;;;;;;;;;;;9.60;99.90;;;;;;8362108;28;20021;-70
2023/02/19 11:46:13;;;;;;;;;;;9.60;99.90;;;;;;8377612;28;19925;-70
2023/02/19 11:50:27;;;;;;;;;;;9.70;99.90;;;;;;8373724;28;19925;-70
2023/02/19 11:54:36;;;;;;;;;;;9.70;99.90;;;;;;8365254;28;20021;-70
2023/02/19 11:58:41;;;;;;;;;;;9.70;99.90;;;;;;8362754;28;20299;-70
2023/02/19 12:02:53;;;;;;;;;;;9.70;99.90;;;;;;8347617;28;19932;-70
2023/02/19 12:07:10;;;;;;;;;;;9.60;99.90;;;;;;8365143;28;19947;-71
2023/02/19 12:11:20;;;;;;;;;;;9.60;99.90;;;;;;8363156;28;19960;-70
2023/02/19 12:15:37;;;;;;;;;;;9.60;99.90;;;;;;8359836;28;19985;-70
2023/02/19 12:19:39;;;;;;;;;;;9.50;99.90;;;;;;8364748;28;20399;-71
2023/02/19 12:24:07;;;;;;;;;;;9.60;99.90;;;;;;8366950;28;19931;-70
2023/02/19 12:28:17;;;;;;;;;;;9.60;99.90;;;;;;8358922;28;19932;-70
2023/02/19 12:32:18;;;;;;;;;;;9.60;99.90;;;;;;8349702;28;19936;-70
2023/02/19 12:36:32;;;;;;;;;;;9.70;99.90;;;;;;8357415;28;19931;-70
2023/02/19 12:40:53;;;;;;;;;;;9.80;99.90;;;;;;8361081;28;19934;-70
2023/02/19 12:44:57;;;;;;;;;;;9.80;99.90;;;;;;8360913;28;19925;-70
2023/02/19 12:49:06;;;;;;;;;;;9.80;99.90;;;;;;8367530;28;22035;-70
2023/02/19 12:53:13;;;;;;;;;;;9.80;99.90;;;;;;8364116;28;20364;-71
2023/02/19 12:57:21;;;;;;;;;;;9.80;99.90;;;;;;8361214;28;20019;-70
2023/02/19 13:01:27;;;;;;;;;;;9.90;99.90;;;;;;8358401;28;19931;-71
2023/02/19 13:05:37;;;;;;;;;;;10.00;99.90;;;;;;8343841;28;19924;-71
2023/02/19 13:09:42;;;;;;;;;;;10.00;99.90;;;;;;8362373;28;20028;-71
2023/02/19 13:13:47;;;;;;;;;;;10.10;99.90;;;;;;8363351;28;19924;-71
2023/02/19 13:17:50;;;;;;;;;;;10.10;99.90;;;;;;8363062;28;20275;-71
2023/02/19 13:26:48;;;;;;;;;;;9.90;99.90;;;;;;8363116;28;19932;-71
2023/02/19 13:31:02;;;;;;;;;;;9.80;99.90;;;;;;8356271;28;20744;-71
2023/02/19 13:35:22;;;;;;;;;;;9.70;99.90;;;;;;8359977;28;19971;-71
2023/02/19 13:39:24;;;;;;;;;;;9.60;99.90;;;;;;8361731;28;20023;-72
2023/02/19 13:43:27;;;;;;;;;;;9.50;99.90;;;;;;8365819;28;19924;-72
2023/02/19 13:47:48;;;;;;;;;;;9.40;99.90;;;;;;8352098;28;19940;-72
2023/02/19 13:51:51;;;;;;;;;;;9.30;99.90;;;;;;8358521;28;19932;-72
2023/02/19 13:55:53;;;;;;;;;;;9.20;99.90;;;;;;8354483;28;20463;-72
2023/02/19 13:59:55;;;;;;;;;;;9.10;99.90;;;;;;8360808;28;19932;-72
2023/02/19 14:04:08;;;;;;;;;;;9.00;99.90;;;;;;8367567;28;19925;-73
2023/02/19 14:08:09;;;;;;;;;;;9.00;99.90;;;;;;8364943;28;19974;-72
2023/02/19 14:12:14;;;;;;;;;;;8.90;99.90;;;;;;8357384;28;20440;-72
2023/02/19 14:16:43;;;;;;;;;;;8.90;99.90;;;;;;8363808;28;19994;-72
2023/02/19 14:20:44;;;;;;;;;;;8.90;99.90;;;;;;8363899;28;19990;-72
2023/02/19 14:24:47;;;;;;;;;;;8.90;99.90;;;;;;8364646;28;19956;-73
2023/02/19 14:28:49;;;;;;;;;;;8.90;99.90;;;;;;8362882;28;20058;-72
2023/02/19 14:32:51;;;;;;;;;;;8.90;99.90;;;;;;8363525;28;20369;-72
2023/02/19 14:37:15;;;;;;;;;;;9.00;99.90;;;;;;8376701;28;19964;-73
2023/02/19 14:41:22;;;;;;;;;;;9.10;99.90;;;;;;8383401;28;20404;-72
2023/02/19 14:45:26;;;;;;;;;;;9.10;99.90;;;;;;8381518;28;19935;-71
2023/02/19 14:49:38;;;;;;;;;;;9.10;99.90;;;;;;8376895;28;20028;-72
2023/02/19 14:53:41;;;;;;;;;;;9.10;99.90;;;;;;8368389;28;19932;-71
2023/02/19 14:57:44;;;;;;;;;;;9.10;99.90;;;;;;8370778;28;19964;-71
2023/02/19 15:01:52;;;;;;;;;;;9.20;99.90;;;;;;8365503;28;19979;-72
2023/02/19 15:05:58;;;;;;;;;;;9.20;99.90;;;;;;8374079;28;19986;-72
2023/02/19 15:10:02;;;;;;;;;;;9.10;99.90;;;;;;8359870;28;19940;-71
2023/02/19 15:14:06;;;;;;;;;;;9.10;99.90;;;;;;8366658;28;19932;-71
2023/02/19 15:18:15;;;;;;;;;;;9.10;99.90;;;;;;8367706;28;19928;-71
2023/02/19 15:22:21;;;;;;;;;;;9.10;99.90;;;;;;8379928;28;19964;-71
2023/02/19 15:26:30;;;;;;;;;;;9.10;99.90;;;;;;8364350;28;20011;-71
2023/02/19 15:30:33;;;;;;;;;;;9.00;99.90;;;;;;8365097;28;19929;-71
2023/02/19 15:34:35;;;;;;;;;;;9.00;99.90;;;;;;8359518;28;20581;-71
2023/02/19 15:38:36;;;;;;;;;;;9.00;99.90;;;;;;8382841;28;19986;-71
2023/02/19 15:42:38;;;;;;;;;;;8.90;99.90;;;;;;8366191;28;20315;-71
2023/02/19 15:46:40;;;;;;;;;;;8.90;99.90;;;;;;8366031;28;20396;-70
2023/02/19 15:50:46;;;;;;;;;;;8.80;99.90;;;;;;8363709;28;19929;-71
2023/02/19 15:55:00;;;;;;;;;;;8.80;99.90;;;;;;8382615;28;20015;-71
2023/02/19 15:59:09;;;;;;;;;;;8.70;99.90;;;;;;8364037;28;20513;-71
2023/02/19 16:03:21;;;;;;;;;;;8.70;99.90;;;;;;8374068;28;20031;-70
2023/02/19 16:07:33;;;;;;;;;;;8.70;99.90;;;;;;8374926;28;19929;-70
2023/02/19 16:11:36;;;;;;;;;;;8.70;99.90;;;;;;8354333;28;19925;-71
2023/02/19 16:15:38;;;;;;;;;;;8.70;99.90;;;;;;8368995;28;20019;-71
2023/02/19 16:19:45;;;;;;;;;;;8.60;99.90;;;;;;8368347;28;19975;-71
2023/02/19 16:23:48;;;;;;;;;;;8.60;99.90;;;;;;8367100;28;19928;-70
2023/02/19 16:27:50;;;;;;;;;;;8.60;99.90;;;;;;8375781;28;19984;-71
2023/02/19 16:31:56;;;;;;;;;;;8.50;99.90;;;;;;8359819;28;20295;-70
2023/02/19 16:36:14;;;;;;;;;;;8.50;99.90;;;;;;8347739;28;20387;-71
2023/02/19 16:40:15;;;;;;;;;;;8.40;99.90;;;;;;8372635;28;19939;-70
2023/02/19 16:44:38;;;;;;;;;;;8.40;99.90;;;;;;8367938;28;19950;-71
2023/02/19 16:48:39;;;;;;;;;;;8.40;99.90;;;;;;8365841;28;19929;-71
2023/02/19 16:52:51;;;;;;;;;;;8.40;99.90;;;;;;8363861;28;19928;-70
2023/02/19 16:56:53;;;;;;;;;;;8.30;99.90;;;;;;8364082;28;20412;-71
2023/02/19 17:00:55;;;;;;;;;;;8.30;99.90;;;;;;8360460;28;19928;-71
2023/02/19 17:04:56;;;;;;;;;;;8.30;99.90;;;;;;8369443;28;19925;-70
2023/02/19 17:08:58;;;;;;;;;;;8.20;99.90;;;;;;8361853;28;19932;-70
2023/02/19 17:12:59;;;;;;;;;;;8.20;99.90;;;;;;8361636;28;20305;-70
2023/02/19 17:17:02;;;;;;;;;;;8.10;99.90;;;;;;8363582;28;19925;-71
2023/02/19 17:21:23;;;;;;;;;;;8.10;99.90;;;;;;8363885;28;19975;-70
2023/02/19 17:25:25;;;;;;;;;;;8.00;99.90;;;;;;8365149;28;20019;-70
2023/02/19 17:29:29;;;;;;;;;;;8.00;99.90;;;;;;8366022;28;19959;-70
2023/02/19 17:33:31;;;;;;;;;;;8.00;99.90;;;;;;8360464;28;19936;-70
2023/02/19 17:37:32;;;;;;;;;;;8.00;99.90;;;;;;8369864;28;19924;-71
2023/02/19 17:41:34;;;;;;;;;;;7.90;99.90;;;;;;8356988;28;19932;-70
2023/02/19 17:45:35;;;;;;;;;;;7.90;99.90;;;;;;8358837;28;20304;-71
2023/02/19 17:49:37;;;;;;;;;;;7.90;99.90;;;;;;8360369;28;20502;-70
2023/02/19 17:53:39;;;;;;;;;;;7.90;99.90;;;;;;8364934;28;19936;-70
2023/02/19 17:57:41;;;;;;;;;;;7.80;99.90;;;;;;8363483;28;20067;-70
2023/02/19 18:01:44;;;;;;;;;;;7.80;99.90;;;;;;8344359;28;19972;-70
2023/02/19 18:05:46;;;;;;;;;;;7.80;99.90;;;;;;8362883;28;19984;-70
2023/02/19 18:09:48;;;;;;;;;;;7.80;99.90;;;;;;8366481;28;20024;-70
2023/02/19 18:13:50;;;;;;;;;;;7.80;99.90;;;;;;8369492;28;20371;-70
2023/02/19 18:17:52;;;;;;;;;;;7.80;99.90;;;;;;8361786;28;19952;-70
2023/02/19 18:21:54;;;;;;;;;;;7.80;99.90;;;;;;8341295;28;19925;-70
2023/02/19 18:25:55;;;;;;;;;;;7.80;99.90;;;;;;8346701;28;20363;-70
2023/02/19 18:29:57;;;;;;;;;;;7.70;99.90;;;;;;8358781;28;20380;-70
2023/02/19 18:33:59;;;;;;;;;;;7.70;99.90;;;;;;8362383;28;19929;-70
2023/02/19 18:38:00;;;;;;;;;;;7.60;99.90;;;;;;8343713;28;20342;-70
2023/02/19 18:42:02;;;;;;;;;;;7.60;99.90;;;;;;8357944;28;19947;-70
2023/02/19 18:46:05;;;;;;;;;;;7.50;99.90;;;;;;8367662;28;19947;-73
2023/02/19 18:50:08;;;;;;;;;;;7.40;99.90;;;;;;8371667;28;19994;-73
2023/02/19 18:54:10;;;;;;;;;;;7.30;99.90;;;;;;8377708;28;19924;-73
2023/02/19 18:58:11;;;;;;;;;;;7.30;99.90;;;;;;8369477;28;19933;-73
2023/02/19 19:02:14;;;;;;;;;;;7.20;99.90;;;;;;8361393;28;19929;-73
2023/02/19 19:06:15;;;;;;;;;;;7.10;99.90;;;;;;8357763;28;19928;-72
2023/02/19 19:10:17;;;;;;;;;;;7.10;99.90;;;;;;8365906;28;19964;-73
2023/02/19 19:14:19;;;;;;;;;;;7.00;99.90;;;;;;8349790;28;19986;-73
2023/02/19 19:18:21;;;;;;;;;;;6.90;99.90;;;;;;8360933;28;20264;-72
2023/02/19 19:22:23;;;;;;;;;;;6.80;99.90;;;;;;8367757;28;19925;-73
2023/02/19 19:26:25;;;;;;;;;;;6.70;99.90;;;;;;8364240;28;19932;-72
2023/02/19 19:30:27;;;;;;;;;;;6.70;99.90;;;;;;8362699;28;19944;-72
2023/02/19 19:34:28;;;;;;;;;;;6.70;99.90;;;;;;8365999;28;19935;-72
2023/02/19 19:38:30;;;;;;;;;;;6.60;99.90;;;;;;8365646;28;19925;-73
2023/02/19 19:42:32;;;;;;;;;;;6.60;99.90;;;;;;8365904;28;19932;-72
2023/02/19 19:46:33;;;;;;;;;;;6.50;99.90;;;;;;8344240;28;20356;-72
2023/02/19 19:50:35;;;;;;;;;;;6.50;99.90;;;;;;8359223;28;19928;-73
2023/02/19 19:54:39;;;;;;;;;;;6.50;99.90;;;;;;8362549;28;20372;-73
2023/02/19 19:58:40;;;;;;;;;;;6.40;99.90;;;;;;8353467;28;20019;-72
2023/02/19 20:02:45;;;;;;;;;;;6.40;99.90;;;;;;8360044;28;19924;-73
2023/02/19 20:06:47;;;;;;;;;;;6.30;99.90;;;;;;8370712;28;19929;-73
2023/02/19 20:10:49;;;;;;;;;;;6.20;99.90;;;;;;8360551;28;20232;-73
2023/02/19 20:14:50;;;;;;;;;;;6.20;99.90;;;;;;8347499;28;19975;-72
2023/02/19 20:18:52;;;;;;;;;;;6.10;99.90;;;;;;8368970;28;19969;-72
2023/02/19 20:22:53;;;;;;;;;;;6.00;99.90;;;;;;8348025;28;19994;-73
2023/02/19 20:26:59;;;;;;;;;;;6.00;99.90;;;;;;8369973;28;19931;-72
2023/02/19 20:31:01;;;;;;;;;;;5.90;99.90;;;;;;8368198;28;19936;-72
2023/02/19 20:35:03;;;;;;;;;;;5.90;99.90;;;;;;8357364;28;19928;-72
2023/02/19 20:39:04;;;;;;;;;;;5.80;99.90;;;;;;8348974;28;19925;-73
2023/02/19 20:43:06;;;;;;;;;;;5.70;99.90;;;;;;8346665;28;19971;-73
2023/02/19 20:47:08;;;;;;;;;;;5.70;99.90;;;;;;8355601;28;20023;-73
2023/02/19 20:51:09;;;;;;;;;;;5.70;99.90;;;;;;8366048;28;20209;-73
2023/02/19 21:00:09;;;;;;;;;;;5.70;99.90;;;;;;8367645;28;19928;-73
2023/02/19 21:04:11;;;;;;;;;;;5.60;99.90;;;;;;8367096;28;20328;-73
2023/02/19 21:08:16;;;;;;;;;;;5.60;99.90;;;;;;8377950;28;20027;-73
2023/02/19 21:12:18;;;;;;;;;;;5.60;99.90;;;;;;8341865;28;20419;-72
2023/02/19 21:16:19;;;;;;;;;;;5.60;99.90;;;;;;8364977;28;20125;-73
2023/02/19 21:20:21;;;;;;;;;;;5.50;99.90;;;;;;8360981;28;19982;-73
2023/02/19 21:24:23;;;;;;;;;;;5.50;99.90;;;;;;8346643;28;20011;-73
2023/02/19 21:28:24;;;;;;;;;;;5.50;99.90;;;;;;8347001;28;20019;-72
2023/02/19 21:32:26;;;;;;;;;;;5.50;99.90;;;;;;8355804;28;19933;-72
2023/02/19 21:36:28;;;;;;;;;;;5.40;99.90;;;;;;8354374;28;19936;-72
2023/02/19 21:40:31;;;;;;;;;;;5.50;99.90;;;;;;8355226;28;19929;-72
2023/02/19 21:44:33;;;;;;;;;;;5.50;99.90;;;;;;8347742;28;19928;-72
2023/02/19 21:48:35;;;;;;;;;;;5.50;99.90;;;;;;8362157;28;20338;-72
2023/02/19 21:52:36;;;;;;;;;;;5.50;99.90;;;;;;8362064;28;19925;-72
2023/02/19 21:56:38;;;;;;;;;;;5.40;99.90;;;;;;8355503;28;20452;-72
2023/02/19 22:00:39;;;;;;;;;;;5.40;99.90;;;;;;8344027;28;20481;-73
2023/02/19 22:04:41;;;;;;;;;;;5.40;99.90;;;;;;8373410;28;19924;-72
2023/02/19 22:08:43;;;;;;;;;;;5.30;99.90;;;;;;8362648;28;19924;-73
2023/02/19 22:12:45;;;;;;;;;;;5.30;99.90;;;;;;8379361;28;19931;-72
2023/02/19 22:16:47;;;;;;;;;;;5.30;99.90;;;;;;8387136;28;19932;-72
2023/02/19 22:20:48;;;;;;;;;;;5.30;99.90;;;;;;8390656;28;19924;-73
2023/02/19 22:24:50;;;;;;;;;;;5.30;99.90;;;;;;8389966;28;19931;-72
2023/02/19 22:28:52;;;;;;;;;;;5.40;99.90;;;;;;8368538;28;20371;-72
2023/02/19 22:32:54;;;;;;;;;;;5.30;99.90;;;;;;8393110;28;20027;-73
2023/02/19 22:36:55;;;;;;;;;;;5.30;99.90;;;;;;8389138;28;19925;-72
2023/02/19 22:40:57;;;;;;;;;;;5.30;99.90;;;;;;8364872;28;19925;-73
2023/02/19 22:44:59;;;;;;;;;;;5.30;99.90;;;;;;8398160;28;20284;-72
2023/02/19 22:59:21;;;;;;;;;;;5.30;99.90;;;;;;8386114;28;19920;-72
2023/02/19 23:03:23;;;;;;;;;;;5.30;99.90;;;;;;8388355;28;20367;-72
2023/02/19 23:07:24;;;;;;;;;;;5.30;99.90;;;;;;8387286;28;19924;-73
2023/02/19 23:11:27;;;;;;;;;;;5.30;99.90;;;;;;8373690;28;19924;-73
2023/02/19 23:15:28;;;;;;;;;;;5.40;99.90;;;;;;8388829;28;20398;-73
2023/02/19 23:19:30;;;;;;;;;;;5.40;99.90;;;;;;8367785;28;19932;-72
2023/02/19 23:23:32;;;;;;;;;;;5.50;99.90;;;;;;8388055;28;19924;-73
2023/02/19 23:27:33;;;;;;;;;;;5.50;99.90;;;;;;8385825;28;20377;-72
2023/02/19 23:31:35;;;;;;;;;;;5.60;99.90;;;;;;8381761;28;19924;-73
2023/02/19 23:35:37;;;;;;;;;;;5.70;99.90;;;;;;8388641;28;19928;-72
2023/02/19 23:39:39;;;;;;;;;;;5.70;99.90;;;;;;8393035;28;20471;-73
2023/02/19 23:43:40;;;;;;;;;;;5.70;99.90;;;;;;8396125;28;19936;-72
2023/02/19 23:47:42;;;;;;;;;;;5.80;99.90;;;;;;8369247;28;19964;-73
2023/02/19 23:51:44;;;;;;;;;;;5.80;99.90;;;;;;8390677;28;19976;-72
2023/02/19 23:55:45;;;;;;;;;;;5.80;99.90;;;;;;8375402;28;19932;-73
2023/02/19 23:59:47;;;;;;;;;;;5.90;99.90;;;;;;8371745;28;20423;-73
